createdAt,value
2024-05-09T00:01:07.277Z,3.17
2024-05-09T00:03:37.221Z,3.22
2024-05-09T00:06:07.827Z,3.78
2024-05-09T00:08:37.830Z,22.38
2024-05-09T00:11:07.926Z,30.13
2024-05-09T00:13:37.842Z,20.30
2024-05-09T00:16:10.541Z,12.77
2024-05-09T00:18:40.360Z,4.25
2024-05-09T00:21:10.882Z,3.65
2024-05-09T00:23:40.782Z,4.72
2024-05-09T00:26:10.718Z,6.83
2024-05-09T00:28:40.537Z,6.13
2024-05-09T00:31:13.154Z,5.93
2024-05-09T00:33:43.055Z,16.85
2024-05-09T00:36:12.852Z,21.63
2024-05-09T00:38:42.617Z,9.37
2024-05-09T00:41:12.450Z,18.60
2024-05-09T00:43:42.143Z,17.02
2024-05-09T00:46:14.639Z,16.20
2024-05-09T00:48:44.620Z,12.85
2024-05-09T00:51:14.645Z,10.50
2024-05-09T00:53:44.711Z,7.15
2024-05-09T00:56:14.807Z,6.03
2024-05-09T00:58:45.789Z,5.07
2024-05-09T01:01:23.190Z,4.75
2024-05-09T01:03:53.567Z,4.10
2024-05-09T01:06:24.282Z,3.10
2024-05-09T01:08:54.374Z,3.08
2024-05-09T01:11:24.424Z,3.30
2024-05-09T01:13:54.357Z,3.28
2024-05-09T01:16:26.787Z,3.43
2024-05-09T01:18:56.954Z,3.58
2024-05-09T01:21:27.202Z,3.42
2024-05-09T01:23:59.498Z,3.05
2024-05-09T01:26:29.296Z,3.40
2024-05-09T01:28:59.062Z,3.40
2024-05-09T01:31:29.092Z,3.65
2024-05-09T01:33:58.859Z,3.47
2024-05-09T01:36:28.765Z,3.70
2024-05-09T01:39:01.482Z,3.60
2024-05-09T01:41:31.259Z,3.07
2024-05-09T01:44:00.971Z,3.63
2024-05-09T01:46:30.622Z,3.83
2024-05-09T01:49:19.175Z,3.60
2024-05-09T01:51:48.836Z,3.88
2024-05-09T01:54:21.082Z,4.07
2024-05-09T01:56:50.613Z,3.78
2024-05-09T01:59:20.151Z,3.90
2024-05-09T02:01:56.699Z,3.60
2024-05-09T02:04:27.859Z,3.00
2024-05-09T02:06:57.522Z,3.80
2024-05-09T02:09:29.695Z,3.08
2024-05-09T02:11:59.340Z,3.70
2024-05-09T02:14:29.050Z,3.55
2024-05-09T02:16:58.649Z,3.75
2024-05-09T02:19:28.562Z,3.70
2024-05-09T02:21:58.116Z,3.72
2024-05-09T02:24:30.286Z,3.65
2024-05-09T02:27:00.033Z,3.35
2024-05-09T02:29:29.893Z,3.05
2024-05-09T02:31:59.552Z,3.47
2024-05-09T02:34:29.156Z,3.53
2024-05-09T02:36:58.756Z,3.72
2024-05-09T02:39:28.283Z,3.67
2024-05-09T02:41:57.887Z,4.20
2024-05-09T02:44:25.093Z,4.00
2024-05-09T02:46:54.856Z,4.03
2024-05-09T02:49:22.034Z,3.42
2024-05-09T02:51:51.610Z,3.53
2024-05-09T02:54:18.547Z,3.80
2024-05-09T02:56:50.699Z,3.93
2024-05-09T02:59:17.685Z,3.60
2024-05-09T03:01:47.448Z,4.15
2024-05-09T03:04:14.554Z,3.60
2024-05-09T03:06:44.124Z,4.05
2024-05-09T03:09:11.055Z,3.33
2024-05-09T03:11:40.810Z,3.15
2024-05-09T03:14:10.529Z,3.45
2024-05-09T03:16:40.689Z,3.33
2024-05-09T03:19:07.755Z,3.40
2024-05-09T03:21:40.826Z,3.73
2024-05-09T03:24:07.910Z,3.40
2024-05-09T03:26:37.585Z,3.67
2024-05-09T03:29:04.718Z,3.40
2024-05-09T03:31:37.025Z,3.60
2024-05-09T03:34:04.227Z,3.50
2024-05-09T03:36:34.173Z,3.15
2024-05-09T03:39:03.672Z,2.55
2024-05-09T03:41:33.354Z,3.63
2024-05-09T03:44:02.986Z,3.47
2024-05-09T03:46:30.045Z,3.80
2024-05-09T03:49:02.363Z,3.58
2024-05-09T03:51:29.403Z,3.78
2024-05-09T03:53:59.975Z,3.42
2024-05-09T03:56:27.025Z,3.75
2024-05-09T03:58:58.087Z,3.90
2024-05-09T04:01:25.515Z,3.75
2024-05-09T04:03:55.264Z,4.30
2024-05-09T04:06:26.173Z,4.15
2024-05-09T04:08:55.895Z,4.18
2024-05-09T04:11:23.006Z,3.97
2024-05-09T04:13:52.708Z,3.92
2024-05-09T04:16:19.714Z,3.72
2024-05-09T04:18:49.505Z,3.47
2024-05-09T04:21:18.181Z,3.38
2024-05-09T04:23:50.448Z,3.30
2024-05-09T04:26:17.511Z,3.40
2024-05-09T04:28:47.178Z,3.10
2024-05-09T04:31:14.608Z,3.05
2024-05-09T04:33:44.356Z,3.35
2024-05-09T04:36:11.444Z,3.20
2024-05-09T04:38:41.035Z,3.55
2024-05-09T04:41:10.678Z,3.00
2024-05-09T04:43:40.266Z,2.50
2024-05-09T04:46:07.207Z,3.03
2024-05-09T04:48:36.873Z,2.70
2024-05-09T04:51:04.246Z,3.17
2024-05-09T04:53:33.974Z,3.05
2024-05-09T04:56:01.027Z,2.75
2024-05-09T04:58:33.141Z,3.25
2024-05-09T05:01:00.987Z,3.10
2024-05-09T05:03:30.707Z,3.20
2024-05-09T05:05:57.985Z,2.90
2024-05-09T05:08:27.675Z,3.30
2024-05-09T05:10:54.747Z,3.22
2024-05-09T05:13:25.232Z,3.10
2024-05-09T05:15:57.239Z,3.20
2024-05-09T05:18:28.608Z,3.10
2024-05-09T05:20:56.577Z,3.88
2024-05-09T05:23:27.013Z,3.42
2024-05-09T05:25:54.859Z,3.23
2024-05-09T05:28:24.748Z,4.05
2024-05-09T05:30:54.272Z,3.72
2024-05-09T05:33:24.494Z,4.00
2024-05-09T05:35:51.563Z,3.53
2024-05-09T05:38:24.954Z,3.47
2024-05-09T05:40:54.466Z,3.67
2024-05-09T05:43:24.196Z,4.03
2024-05-09T05:45:51.148Z,3.80
2024-05-09T05:48:23.673Z,3.75
2024-05-09T05:50:50.763Z,4.13
2024-05-09T05:53:20.338Z,4.88
2024-05-09T05:55:47.436Z,4.70
2024-05-09T05:58:17.105Z,4.70
2024-05-09T06:00:44.596Z,5.57
2024-05-09T06:03:14.959Z,4.47
2024-05-09T06:05:45.928Z,5.75
2024-05-09T06:08:15.829Z,5.70
2024-05-09T06:10:43.034Z,5.72
2024-05-09T06:13:13.837Z,5.13
2024-05-09T06:15:41.853Z,5.13
2024-05-09T06:18:12.813Z,5.28
2024-05-09T06:20:41.886Z,5.38
2024-05-09T06:23:15.177Z,5.65
2024-05-09T06:25:42.795Z,5.65
2024-05-09T06:28:12.555Z,5.27
2024-05-09T06:30:42.417Z,5.20
2024-05-09T06:33:15.731Z,5.45
2024-05-09T06:35:44.057Z,5.60
2024-05-09T06:38:16.703Z,5.32
2024-05-09T06:40:44.560Z,5.10
2024-05-09T06:43:16.916Z,5.72
2024-05-09T06:45:46.919Z,6.03
2024-05-09T06:48:17.234Z,5.80
2024-05-09T06:50:44.435Z,6.13
2024-05-09T06:53:17.402Z,5.83
2024-05-09T06:55:44.789Z,6.18
2024-05-09T06:58:14.695Z,5.90
2024-05-09T07:00:42.425Z,6.05
2024-05-09T07:03:14.284Z,5.88
2024-05-09T07:05:44.054Z,5.83
2024-05-09T07:08:17.155Z,5.70
2024-05-09T07:10:44.535Z,5.93
2024-05-09T07:13:16.028Z,5.88
2024-05-09T07:15:43.557Z,5.63
2024-05-09T07:18:15.583Z,6.37
2024-05-09T07:20:43.233Z,5.78
2024-05-09T07:23:13.259Z,6.13
2024-05-09T07:25:43.000Z,6.05
2024-05-09T07:28:14.114Z,5.38
2024-05-09T07:30:41.634Z,6.33
2024-05-09T07:33:12.207Z,6.13
2024-05-09T07:35:39.923Z,6.45
2024-05-09T07:38:11.341Z,5.75
2024-05-09T07:40:39.284Z,5.68
2024-05-09T07:43:14.213Z,5.60
2024-05-09T07:45:50.693Z,5.80
2024-05-09T07:52:38.410Z,5.68
2024-05-09T07:53:49.213Z,4.75
2024-05-09T07:56:22.130Z,5.03
2024-05-09T07:58:56.171Z,5.93
2024-05-09T08:01:27.537Z,5.18
2024-05-09T08:03:55.232Z,5.22
2024-05-09T08:06:26.059Z,5.18
2024-05-09T08:08:53.314Z,5.50
2024-05-09T08:11:23.767Z,4.80
2024-05-09T08:13:53.953Z,4.53
2024-05-09T08:16:23.859Z,4.97
2024-05-09T08:18:50.963Z,4.80
2024-05-09T08:21:20.528Z,5.10
2024-05-09T08:23:47.572Z,5.38
2024-05-09T08:26:17.163Z,4.68
2024-05-09T08:28:44.164Z,4.45
2024-05-09T08:31:16.483Z,3.95
2024-05-09T08:33:44.492Z,3.83
2024-05-09T08:36:14.117Z,3.78
2024-05-09T08:38:41.050Z,3.00
2024-05-09T08:41:10.736Z,3.55
2024-05-09T08:43:40.679Z,3.38
2024-05-09T08:46:12.757Z,2.93
2024-05-09T08:48:45.687Z,2.90
2024-05-09T08:51:17.151Z,3.85
2024-05-09T08:53:44.193Z,3.78
2024-05-09T08:56:14.223Z,4.53
2024-05-09T08:58:42.606Z,3.90
2024-05-09T09:01:12.657Z,3.58
2024-05-09T09:03:43.534Z,3.72
2024-05-09T09:06:15.457Z,3.63
2024-05-09T09:08:43.041Z,3.22
2024-05-09T09:11:13.520Z,3.30
2024-05-09T09:13:40.510Z,3.47
2024-05-09T09:16:10.687Z,3.10
2024-05-09T09:18:37.906Z,2.95
2024-05-09T09:21:12.890Z,2.95
2024-05-09T09:23:39.918Z,2.80
2024-05-09T09:26:09.696Z,2.47
2024-05-09T09:28:36.842Z,2.35
2024-05-09T09:31:07.177Z,2.63
2024-05-09T09:33:36.173Z,2.67
2024-05-09T09:36:08.396Z,2.70
2024-05-09T09:38:40.576Z,2.70
2024-05-09T09:41:11.665Z,2.80
2024-05-09T09:43:39.887Z,2.40
2024-05-09T09:46:12.780Z,2.00
2024-05-09T09:48:40.623Z,2.70
2024-05-09T09:51:11.102Z,3.20
2024-05-09T09:53:42.460Z,2.97
2024-05-09T09:56:12.778Z,2.70
2024-05-09T09:58:40.443Z,3.03
2024-05-09T10:01:10.276Z,3.07
2024-05-09T10:03:37.695Z,2.70
2024-05-09T10:06:08.790Z,3.10
2024-05-09T10:08:36.639Z,2.78
2024-05-09T10:11:09.137Z,2.88
2024-05-09T10:13:36.449Z,3.40
2024-05-09T10:16:12.148Z,3.20
2024-05-09T10:18:40.748Z,3.70
2024-05-09T10:21:20.435Z,2.97
2024-05-09T10:23:58.176Z,3.72
2024-05-09T10:26:37.761Z,4.23
2024-05-09T10:29:12.217Z,3.97
2024-05-09T10:31:44.212Z,3.47
2024-05-09T10:34:20.200Z,3.92
2024-05-09T10:36:52.292Z,5.05
2024-05-09T10:39:22.837Z,4.43
2024-05-09T10:41:52.620Z,4.78
2024-05-09T10:44:24.081Z,4.68
2024-05-09T10:46:51.328Z,5.03
2024-05-09T10:49:21.204Z,5.32
2024-05-09T10:51:48.751Z,4.40
2024-05-09T10:54:18.635Z,4.45
2024-05-09T10:56:45.592Z,4.60
2024-05-09T10:59:17.930Z,4.72
2024-05-09T11:01:45.015Z,3.83
2024-05-09T11:04:15.029Z,4.43
2024-05-09T11:06:42.929Z,3.70
2024-05-09T11:09:13.211Z,4.57
2024-05-09T11:11:40.489Z,3.95
2024-05-09T11:14:18.677Z,4.22
2024-05-09T11:16:45.742Z,4.57
2024-05-09T11:19:18.605Z,4.80
2024-05-09T11:21:51.055Z,4.05
2024-05-09T11:24:20.931Z,4.00
2024-05-09T11:26:47.975Z,4.07
2024-05-09T11:29:20.125Z,3.90
2024-05-09T11:31:47.973Z,3.78
2024-05-09T11:34:18.085Z,3.65
2024-05-09T11:36:45.280Z,4.20
2024-05-09T11:39:15.257Z,4.05
2024-05-09T11:41:42.447Z,4.40
2024-05-09T11:44:13.110Z,4.10
2024-05-09T11:46:42.849Z,3.75
2024-05-09T11:49:12.845Z,3.80
2024-05-09T11:51:39.980Z,4.00
2024-05-09T11:54:10.086Z,4.17
2024-05-09T11:56:37.313Z,3.75
2024-05-09T11:59:06.811Z,4.00
2024-05-09T12:01:34.066Z,3.85
2024-05-09T12:04:07.008Z,3.28
2024-05-09T12:06:34.202Z,3.87
2024-05-09T12:09:03.806Z,3.80
2024-05-09T12:11:30.817Z,4.03
2024-05-09T12:14:00.480Z,3.97
2024-05-09T12:16:27.509Z,4.50
2024-05-09T12:18:57.404Z,3.93
2024-05-09T12:21:27.640Z,4.03
2024-05-09T12:23:57.241Z,3.03
2024-05-09T12:26:24.411Z,3.80
2024-05-09T12:28:53.985Z,3.63
2024-05-09T12:31:21.022Z,3.43
2024-05-09T12:33:50.721Z,3.70
2024-05-09T12:36:17.956Z,4.03
2024-05-09T12:38:50.429Z,4.57
2024-05-09T12:41:17.463Z,4.40
2024-05-09T12:43:47.098Z,4.20
2024-05-09T12:46:14.476Z,4.20
2024-05-09T12:48:44.313Z,4.28
2024-05-09T12:51:11.497Z,4.07
2024-05-09T12:53:41.116Z,4.20
2024-05-09T12:56:10.947Z,4.07
2024-05-09T12:58:40.983Z,3.45
2024-05-09T13:01:07.981Z,3.95
2024-05-09T13:03:37.758Z,3.85
2024-05-09T13:06:05.240Z,3.80
2024-05-09T13:08:34.907Z,3.33
2024-05-09T13:11:01.905Z,3.90
2024-05-09T13:13:34.056Z,3.53
2024-05-09T13:16:01.039Z,3.83
2024-05-09T13:18:30.806Z,4.85
2024-05-09T13:20:57.821Z,4.57
2024-05-09T13:23:27.313Z,3.28
2024-05-09T13:25:54.646Z,3.67
2024-05-09T13:28:24.491Z,3.42
2024-05-09T13:30:54.251Z,3.22
2024-05-09T13:33:24.280Z,2.80
2024-05-09T13:35:51.522Z,3.22
2024-05-09T13:38:21.889Z,2.97
2024-05-09T13:40:49.986Z,2.90
2024-05-09T13:43:21.835Z,2.90
2024-05-09T13:45:49.378Z,2.87
2024-05-09T13:48:21.757Z,2.20
2024-05-09T13:50:48.902Z,2.88
2024-05-09T13:53:18.585Z,3.00
2024-05-09T13:55:45.691Z,2.67
2024-05-09T13:58:15.995Z,2.23
2024-05-09T14:00:47.959Z,3.00
2024-05-09T14:03:22.011Z,3.28
2024-05-09T14:05:50.902Z,3.70
2024-05-09T14:08:22.323Z,2.88
2024-05-09T14:10:50.817Z,3.27
2024-05-09T14:13:20.631Z,2.65
2024-05-09T14:15:48.031Z,2.40
2024-05-09T14:18:17.843Z,3.05
2024-05-09T14:20:47.518Z,2.72
2024-05-09T14:23:17.770Z,3.00
2024-05-09T14:25:46.585Z,2.88
2024-05-09T14:28:19.050Z,2.80
2024-05-09T14:30:46.682Z,2.70
2024-05-09T14:33:20.576Z,2.90
2024-05-09T14:35:50.275Z,3.07
2024-05-09T14:38:19.834Z,2.40
2024-05-09T14:40:46.908Z,3.03
2024-05-09T14:43:17.695Z,2.58
2024-05-09T14:45:45.119Z,2.72
2024-05-09T14:48:17.079Z,2.77
2024-05-09T14:50:46.860Z,2.53
2024-05-09T14:53:16.330Z,2.28
2024-05-09T14:55:45.962Z,3.22
2024-05-09T14:58:13.643Z,2.83
2024-05-09T15:00:48.513Z,2.70
2024-05-09T15:03:18.752Z,3.10
2024-05-09T15:05:49.683Z,3.10
2024-05-09T15:08:20.325Z,3.10
2024-05-09T15:10:50.977Z,3.13
2024-05-09T15:13:18.567Z,3.00
2024-05-09T15:15:48.581Z,2.97
2024-05-09T15:18:16.397Z,3.10
2024-05-09T15:20:46.755Z,3.30
2024-05-09T15:23:13.992Z,2.80
2024-05-09T15:25:47.425Z,3.40
2024-05-09T15:28:14.621Z,3.10
2024-05-09T15:30:46.490Z,3.20
2024-05-09T15:33:14.385Z,3.08
2024-05-09T15:35:46.223Z,3.75
2024-05-09T15:38:14.593Z,3.20
2024-05-09T15:40:47.063Z,3.40
2024-05-09T15:43:14.451Z,3.63
2024-05-09T15:45:45.013Z,3.60
2024-05-09T15:48:12.478Z,3.45
2024-05-09T15:50:42.878Z,3.20
2024-05-09T15:53:12.191Z,3.00
2024-05-09T15:55:42.739Z,2.97
2024-05-09T15:58:13.164Z,3.33
2024-05-09T16:00:46.284Z,3.28
2024-05-09T16:03:15.647Z,3.20
2024-05-09T16:05:47.599Z,3.10
2024-05-09T16:08:15.843Z,3.28
2024-05-09T16:10:46.443Z,4.10
2024-05-09T16:13:17.634Z,3.60
2024-05-09T16:15:48.313Z,3.10
2024-05-09T16:18:15.813Z,3.40
2024-05-09T16:20:49.228Z,3.47
2024-05-09T16:23:17.326Z,3.28
2024-05-09T16:25:48.267Z,3.40
2024-05-09T16:28:18.527Z,3.70
2024-05-09T16:30:48.275Z,3.17
2024-05-09T16:33:15.402Z,3.40
2024-05-09T16:35:44.953Z,3.47
2024-05-09T16:38:12.467Z,3.30
2024-05-09T16:40:42.040Z,3.70
2024-05-09T16:43:10.090Z,3.80
2024-05-09T16:45:45.180Z,3.95
2024-05-09T16:48:14.066Z,3.95
2024-05-09T16:50:44.097Z,3.60
2024-05-09T16:53:11.473Z,3.53
2024-05-09T16:55:41.027Z,3.85
2024-05-09T16:58:08.648Z,3.55
2024-05-09T17:00:42.364Z,3.90
2024-05-09T17:03:15.212Z,4.30
2024-05-09T17:05:47.257Z,4.77
2024-05-09T17:08:15.778Z,3.80
2024-05-09T17:10:45.543Z,3.83
2024-05-09T17:13:15.211Z,5.00
2024-05-09T17:15:44.861Z,5.10
2024-05-09T17:18:17.270Z,4.00
2024-05-09T17:20:46.830Z,4.43
2024-05-09T17:23:14.443Z,3.90
2024-05-09T17:25:45.062Z,4.30
2024-05-09T17:28:12.568Z,4.18
2024-05-09T17:30:42.986Z,4.80
2024-05-09T17:33:12.837Z,3.92
2024-05-09T17:35:46.107Z,4.45
2024-05-09T17:38:13.376Z,4.80
2024-05-09T17:40:43.550Z,5.10
2024-05-09T17:43:11.180Z,4.83
2024-05-09T17:45:41.878Z,4.82
2024-05-09T17:48:10.382Z,5.30
2024-05-09T17:50:41.850Z,4.90
2024-05-09T17:53:11.844Z,5.10
2024-05-09T17:55:42.594Z,4.43
2024-05-09T17:58:10.176Z,4.25
2024-05-09T18:00:42.168Z,5.13
2024-05-09T18:03:12.042Z,4.82
2024-05-09T18:05:44.415Z,4.85
2024-05-09T18:08:14.921Z,4.97
2024-05-09T18:10:44.867Z,4.32
2024-05-09T18:13:12.939Z,4.55
2024-05-09T18:15:42.804Z,4.30
2024-05-09T18:18:11.157Z,4.05
2024-05-09T18:20:44.798Z,4.47
2024-05-09T18:23:18.166Z,4.43
2024-05-09T18:25:48.742Z,4.15
2024-05-09T18:28:16.940Z,4.85
2024-05-09T18:30:47.705Z,4.15
2024-05-09T18:33:15.060Z,3.67
2024-05-09T18:35:45.795Z,3.95
2024-05-09T18:38:15.581Z,4.25
2024-05-09T18:40:48.304Z,3.80
2024-05-09T18:43:16.680Z,4.18
2024-05-09T18:45:49.118Z,3.93
2024-05-09T18:48:16.510Z,4.10
2024-05-09T18:50:46.422Z,4.05
2024-05-09T18:53:16.248Z,4.25
2024-05-09T18:55:45.863Z,4.25
2024-05-09T18:58:13.092Z,4.50
2024-05-09T19:00:45.407Z,4.28
2024-05-09T19:03:17.911Z,3.85
2024-05-09T19:05:46.435Z,4.00
2024-05-09T19:08:19.115Z,4.05
2024-05-09T19:10:46.556Z,4.23
2024-05-09T19:13:16.621Z,4.68
2024-05-09T19:15:44.507Z,3.97
2024-05-09T19:18:15.444Z,3.60
2024-05-09T19:20:43.390Z,4.05
2024-05-09T19:23:14.035Z,3.90
2024-05-09T19:25:43.561Z,3.40
2024-05-09T19:28:13.126Z,3.65
2024-05-09T19:30:42.451Z,3.38
2024-05-09T19:33:14.187Z,3.92
2024-05-09T19:35:41.814Z,3.33
2024-05-09T19:38:11.718Z,3.47
2024-05-09T19:40:39.082Z,3.70
2024-05-09T19:43:11.777Z,4.15
2024-05-09T19:45:39.211Z,3.95
2024-05-09T19:48:09.980Z,4.03
2024-05-09T19:50:42.533Z,3.50
2024-05-09T19:53:14.439Z,3.70
2024-05-09T19:55:42.550Z,3.88
2024-05-09T19:58:14.834Z,3.65
2024-05-09T20:00:43.673Z,3.80
2024-05-09T20:03:15.562Z,3.75
2024-05-09T20:05:45.016Z,3.70
2024-05-09T20:08:15.055Z,3.75
2024-05-09T20:10:42.386Z,4.18
2024-05-09T20:13:12.633Z,3.80
2024-05-09T20:15:42.590Z,3.55
2024-05-09T20:18:12.302Z,4.07
2024-05-09T20:20:42.532Z,4.25
2024-05-09T20:23:13.747Z,4.10
2024-05-09T20:25:41.540Z,4.10
2024-05-09T20:28:11.472Z,4.15
2024-05-09T20:30:38.891Z,4.20
2024-05-09T20:33:12.686Z,4.15
2024-05-09T20:35:40.060Z,3.72
2024-05-09T20:38:10.039Z,3.63
2024-05-09T20:40:39.200Z,4.30
2024-05-09T20:43:11.003Z,3.88
2024-05-09T20:45:38.410Z,3.90
2024-05-09T20:48:12.171Z,4.32
2024-05-09T20:50:41.801Z,4.33
2024-05-09T20:53:14.627Z,3.90
2024-05-09T20:55:42.732Z,4.35
2024-05-09T20:58:12.969Z,4.03
2024-05-09T21:00:43.802Z,3.72
2024-05-09T21:03:18.365Z,4.20
2024-05-09T21:05:46.391Z,4.00
2024-05-09T21:08:16.633Z,3.90
2024-05-09T21:10:43.763Z,4.00
2024-05-09T21:13:13.765Z,4.20
2024-05-09T21:15:41.050Z,4.00
2024-05-09T21:18:11.286Z,4.20
2024-05-09T21:20:43.613Z,4.57
2024-05-09T21:23:13.272Z,4.18
2024-05-09T21:25:40.467Z,4.60
2024-05-09T21:28:10.274Z,4.00
2024-05-09T21:30:41.658Z,4.80
2024-05-09T21:33:14.672Z,4.13
2024-05-09T21:35:45.242Z,4.40
2024-05-09T21:38:16.105Z,4.72
2024-05-09T21:40:43.698Z,4.33
2024-05-09T21:43:14.402Z,4.93
2024-05-09T21:45:41.707Z,4.70
2024-05-09T21:48:11.591Z,4.82
2024-05-09T21:50:41.322Z,4.30
2024-05-09T21:53:14.794Z,4.77
2024-05-09T21:55:42.159Z,4.43
2024-05-09T21:58:11.879Z,4.22
2024-05-09T22:00:40.965Z,4.40
2024-05-09T22:03:12.307Z,4.47
2024-05-09T22:05:43.423Z,4.63
2024-05-09T22:08:15.792Z,4.55
2024-05-09T22:10:42.941Z,4.40
2024-05-09T22:13:12.668Z,4.35
2024-05-09T22:15:40.664Z,4.50
2024-05-09T22:18:11.843Z,4.50
2024-05-09T22:20:44.660Z,4.57
2024-05-09T22:23:18.365Z,4.93
2024-05-09T22:25:45.393Z,5.22
2024-05-09T22:28:17.122Z,4.63
2024-05-09T22:30:46.069Z,5.00
2024-05-09T22:33:17.256Z,5.15
2024-05-09T22:35:44.417Z,5.32
2024-05-09T22:38:13.972Z,5.25
2024-05-09T22:40:48.316Z,4.85
2024-05-09T22:43:23.870Z,5.10
2024-05-09T22:45:52.402Z,5.07
2024-05-09T22:48:23.382Z,4.70
2024-05-09T22:50:50.732Z,4.53
2024-05-09T22:53:20.757Z,4.40
2024-05-09T22:55:50.494Z,4.90
2024-05-09T22:58:20.790Z,5.40
2024-05-09T23:00:48.027Z,4.70
2024-05-09T23:03:20.842Z,5.00
2024-05-09T23:05:48.716Z,4.72
2024-05-09T23:08:18.229Z,4.40
2024-05-09T23:10:45.144Z,4.50
2024-05-09T23:13:17.484Z,4.65
2024-05-09T23:15:44.574Z,5.25
2024-05-09T23:18:14.205Z,4.57
2024-05-09T23:20:41.221Z,4.80
2024-05-09T23:23:12.343Z,5.32
2024-05-09T23:25:41.433Z,4.70
2024-05-09T23:28:11.615Z,5.22
2024-05-09T23:30:42.163Z,6.10
2024-05-09T23:33:14.320Z,5.87
2024-05-09T23:35:42.454Z,5.47
2024-05-09T23:38:11.992Z,6.00
2024-05-09T23:40:41.120Z,5.38
2024-05-09T23:43:12.681Z,5.53
2024-05-09T23:45:43.682Z,5.47
2024-05-09T23:48:13.531Z,6.30
2024-05-09T23:50:41.501Z,5.53
2024-05-09T23:53:11.531Z,5.50
2024-05-09T23:55:39.171Z,6.25
2024-05-09T23:58:09.556Z,5.77
